createdAt,value
2016-06-04T00:00:18.214Z,23.16
2016-06-04T00:01:18.185Z,23.03
2016-06-04T00:02:18.703Z,23.15
2016-06-04T00:03:18.174Z,23.15
2016-06-04T00:04:18.162Z,23.04
2016-06-04T00:05:18.164Z,23.04
2016-06-04T00:06:18.136Z,23.14
2016-06-04T00:07:18.124Z,23.12
2016-06-04T00:08:18.094Z,23.04
2016-06-04T00:09:18.097Z,23.01
2016-06-04T00:10:18.678Z,23.01
2016-06-04T00:11:18.399Z,23.01
2016-06-04T00:12:18.057Z,23.04
2016-06-04T00:13:18.046Z,23.07
2016-06-04T00:14:17.876Z,23
2016-06-04T00:15:18.020Z,23.04
2016-06-04T00:16:18.006Z,23.12
2016-06-04T00:17:17.993Z,23.11
2016-06-04T00:18:17.981Z,22.99
2016-06-04T00:19:17.983Z,23.03
2016-06-04T00:20:17.955Z,23.04
2016-06-04T00:21:17.942Z,23.07
2016-06-04T00:22:17.929Z,23.16
2016-06-04T00:23:17.916Z,23.09
2016-06-04T00:24:17.903Z,23.11
2016-06-04T00:25:17.890Z,23
2016-06-04T00:26:18.003Z,23.07
2016-06-04T00:27:17.880Z,23.06
2016-06-04T00:28:17.850Z,23.12
2016-06-04T00:29:17.839Z,23.15
2016-06-04T00:30:17.825Z,23
2016-06-04T00:31:17.813Z,23.11
2016-06-04T00:32:17.799Z,23.11
2016-06-04T00:33:17.786Z,23.01
2016-06-04T00:34:17.977Z,23.03
2016-06-04T00:35:17.761Z,23.06
2016-06-04T00:36:17.747Z,23.04
2016-06-04T00:37:17.735Z,23.09
2016-06-04T00:38:17.722Z,22.99
2016-06-04T00:39:17.725Z,23
2016-06-04T00:40:17.696Z,22.96
2016-06-04T00:41:17.683Z,22.94
2016-06-04T00:42:17.983Z,23.01
2016-06-04T00:43:17.657Z,23.01
2016-06-04T00:44:17.644Z,23
2016-06-04T00:45:17.631Z,22.88
2016-06-04T00:46:17.619Z,23.01
2016-06-04T00:47:17.637Z,23.06
2016-06-04T00:48:17.609Z,23.04
2016-06-04T00:49:17.579Z,22.99
2016-06-04T00:50:18.020Z,22.99
2016-06-04T00:51:17.554Z,23.04
2016-06-04T00:52:17.540Z,23.03
2016-06-04T00:53:17.529Z,22.89
2016-06-04T00:54:17.515Z,22.93
2016-06-04T00:55:17.502Z,22.84
2016-06-04T00:56:17.333Z,22.94
2016-06-04T00:57:17.633Z,22.88
2016-06-04T00:58:17.464Z,22.85
2016-06-04T00:59:17.462Z,22.93
2016-06-04T01:00:17.499Z,22.82
2016-06-04T01:01:17.518Z,22.94
2016-06-04T01:02:17.555Z,22.91
2016-06-04T01:03:17.560Z,22.93
2016-06-04T01:04:17.557Z,23
2016-06-04T01:05:17.806Z,22.93
2016-06-04T01:06:17.571Z,22.93
2016-06-04T01:07:17.554Z,22.89
2016-06-04T01:08:17.553Z,22.91
2016-06-04T01:09:17.549Z,22.84
2016-06-04T01:10:17.540Z,22.86
2016-06-04T01:11:17.860Z,22.86
2016-06-04T01:12:17.523Z,22.89
2016-06-04T01:13:17.874Z,22.88
2016-06-04T01:14:17.520Z,22.91
2016-06-04T01:15:17.493Z,22.85
2016-06-04T01:16:17.481Z,22.89
2016-06-04T01:17:17.470Z,23
2016-06-04T01:18:17.459Z,22.93
2016-06-04T01:19:17.447Z,22.93
2016-06-04T01:20:17.434Z,22.82
2016-06-04T01:21:17.922Z,22.84
2016-06-04T01:22:17.410Z,22.91
2016-06-04T01:23:17.397Z,22.89
2016-06-04T01:24:17.384Z,22.88
2016-06-04T01:25:17.387Z,22.81
2016-06-04T01:26:17.375Z,22.91
2016-06-04T01:27:17.347Z,22.88
2016-06-04T01:28:17.334Z,22.82
2016-06-04T01:29:17.931Z,22.82
2016-06-04T01:30:17.293Z,22.78
2016-06-04T01:31:17.296Z,22.86
2016-06-04T01:32:17.282Z,22.81
2016-06-04T01:33:17.285Z,22.89
2016-06-04T01:34:17.272Z,22.82
2016-06-04T01:35:17.307Z,22.85
2016-06-04T01:36:17.262Z,22.84
2016-06-04T01:37:17.921Z,22.82
2016-06-04T01:38:17.237Z,22.78
2016-06-04T01:39:17.208Z,22.82
2016-06-04T01:40:17.179Z,22.74
2016-06-04T01:41:16.854Z,22.79
2016-06-04T01:42:17.153Z,22.84
2016-06-04T01:43:17.141Z,22.82
2016-06-04T01:44:17.128Z,22.84
2016-06-04T01:45:17.958Z,22.85
2016-06-04T01:46:17.102Z,22.78
2016-06-04T01:47:17.089Z,22.86
2016-06-04T01:48:17.092Z,22.78
2016-06-04T01:49:17.094Z,22.86
2016-06-04T01:50:17.113Z,22.78
2016-06-04T01:51:17.037Z,22.82
2016-06-04T01:52:17.024Z,22.84
2016-06-04T01:53:17.199Z,22.81
2016-06-04T01:54:17.045Z,22.79
2016-06-04T01:55:16.985Z,22.84
2016-06-04T01:56:17.941Z,22.79
2016-06-04T01:57:16.960Z,22.79
2016-06-04T01:58:16.978Z,22.88
2016-06-04T01:59:16.949Z,22.81
2016-06-04T02:00:16.920Z,22.82
2016-06-04T02:01:17.221Z,22.86
2016-06-04T02:02:16.895Z,22.82
2016-06-04T02:03:16.881Z,22.74
2016-06-04T02:04:16.869Z,22.81
2016-06-04T02:05:16.700Z,22.7
2016-06-04T02:06:16.858Z,22.69
2016-06-04T02:07:16.674Z,22.72
2016-06-04T02:08:16.973Z,22.69
2016-06-04T02:09:17.241Z,22.67
2016-06-04T02:10:16.792Z,22.7
2016-06-04T02:11:17.810Z,22.7
2016-06-04T02:12:16.764Z,22.72
2016-06-04T02:13:16.737Z,22.67
2016-06-04T02:14:16.724Z,22.75
2016-06-04T02:15:16.711Z,22.7
2016-06-04T02:16:16.854Z,22.75
2016-06-04T02:17:16.700Z,22.76
2016-06-04T02:18:16.688Z,22.67
2016-06-04T02:19:16.691Z,22.72
2016-06-04T02:20:16.677Z,22.76
2016-06-04T02:21:16.649Z,22.69
2016-06-04T02:22:16.636Z,22.7
2016-06-04T02:23:16.624Z,22.7
2016-06-04T02:24:16.908Z,22.7
2016-06-04T02:25:16.582Z,22.74
2016-06-04T02:26:17.334Z,22.66
2016-06-04T02:27:16.571Z,22.67
2016-06-04T02:28:16.574Z,22.61
2016-06-04T02:29:16.529Z,22.64
2016-06-04T02:30:16.532Z,22.69
2016-06-04T02:31:16.535Z,22.64
2016-06-04T02:32:16.866Z,22.64
2016-06-04T02:33:16.493Z,22.66
2016-06-04T02:34:16.481Z,22.63
2016-06-04T02:35:16.468Z,22.72
2016-06-04T02:36:16.440Z,22.66
2016-06-04T02:37:16.442Z,22.7
2016-06-04T02:38:16.444Z,22.66
2016-06-04T02:39:16.401Z,22.7
2016-06-04T02:40:16.856Z,22.63
2016-06-04T02:41:16.281Z,22.67
2016-06-04T02:42:16.393Z,22.64
2016-06-04T02:43:16.364Z,22.69
2016-06-04T02:44:16.351Z,22.67
2016-06-04T02:45:16.323Z,22.7
2016-06-04T02:46:16.310Z,22.66
2016-06-04T02:47:16.297Z,22.66
2016-06-04T02:48:16.893Z,22.64
2016-06-04T02:49:16.271Z,22.61
2016-06-04T02:50:16.258Z,22.57
2016-06-04T02:51:16.261Z,22.57
2016-06-04T02:52:16.247Z,22.61
2016-06-04T02:53:16.235Z,22.6
2016-06-04T02:54:16.253Z,22.57
2016-06-04T02:55:16.225Z,22.56
2016-06-04T02:56:16.180Z,22.57
2016-06-04T02:57:16.168Z,22.56
2016-06-04T02:58:16.154Z,22.61
2016-06-04T02:59:16.141Z,22.59
2016-06-04T03:00:16.129Z,22.54
2016-06-04T03:01:16.116Z,22.61
2016-06-04T03:02:16.103Z,22.56
2016-06-04T03:03:16.090Z,22.61
2016-06-04T03:04:16.874Z,22.7
2016-06-04T03:05:16.080Z,22.72
2016-06-04T03:06:16.067Z,22.67
2016-06-04T03:07:16.054Z,22.7
2016-06-04T03:08:16.041Z,22.67
2016-06-04T03:09:16.012Z,22.6
2016-06-04T03:10:16.000Z,22.57
2016-06-04T03:11:16.689Z,22.64
2016-06-04T03:12:16.176Z,22.59
2016-06-04T03:13:15.961Z,22.64
2016-06-04T03:14:15.932Z,22.59
2016-06-04T03:15:15.934Z,22.69
2016-06-04T03:16:15.922Z,22.6
2016-06-04T03:17:15.753Z,22.59
2016-06-04T03:18:15.896Z,22.61
2016-06-04T03:19:15.884Z,22.61
2016-06-04T03:20:16.183Z,22.61
2016-06-04T03:21:15.857Z,22.59
2016-06-04T03:22:15.876Z,22.64
2016-06-04T03:23:15.847Z,22.63
2016-06-04T03:24:15.819Z,22.61
2016-06-04T03:25:15.805Z,22.59
2016-06-04T03:26:15.839Z,22.64
2016-06-04T03:27:15.780Z,22.64
2016-06-04T03:28:16.220Z,22.6
2016-06-04T03:29:15.754Z,22.56
2016-06-04T03:30:15.741Z,22.66
2016-06-04T03:31:15.728Z,22.57
2016-06-04T03:32:15.716Z,22.57
2016-06-04T03:33:15.732Z,22.66
2016-06-04T03:34:15.690Z,22.54
2016-06-04T03:35:15.692Z,22.6
2016-06-04T03:36:15.726Z,22.59
2016-06-04T03:37:15.634Z,22.6
2016-06-04T03:38:15.637Z,22.59
2016-06-04T03:39:15.624Z,22.46
2016-06-04T03:40:15.612Z,22.49
2016-06-04T03:41:15.583Z,22.57
2016-06-04T03:42:15.586Z,22.51
2016-06-04T03:43:15.572Z,22.48
2016-06-04T03:44:15.575Z,22.54
2016-06-04T03:45:15.547Z,22.45
2016-06-04T03:46:15.534Z,22.44
2016-06-04T03:47:15.537Z,22.45
2016-06-04T03:48:15.508Z,22.56
2016-06-04T03:49:15.495Z,22.48
2016-06-04T03:50:15.466Z,22.61
2016-06-04T03:51:15.453Z,22.52
2016-06-04T03:52:15.440Z,22.44
2016-06-04T03:53:15.444Z,22.45
2016-06-04T03:54:15.414Z,22.46
2016-06-04T03:55:15.402Z,22.51
2016-06-04T03:56:15.263Z,22.57
2016-06-04T03:57:15.376Z,22.45
2016-06-04T03:58:15.379Z,22.51
2016-06-04T03:59:15.350Z,22.54
2016-06-04T04:00:15.337Z,22.46
2016-06-04T04:01:15.324Z,22.51
2016-06-04T04:02:15.327Z,22.52
2016-06-04T04:03:15.299Z,22.45
2016-06-04T04:04:15.285Z,22.45
2016-06-04T04:05:15.273Z,22.45
2016-06-04T04:06:15.276Z,22.48
2016-06-04T04:07:15.246Z,22.49
2016-06-04T04:08:15.234Z,22.45
2016-06-04T04:09:15.220Z,22.46
2016-06-04T04:10:15.223Z,22.48
2016-06-04T04:11:15.351Z,22.46
2016-06-04T04:12:15.182Z,22.42
2016-06-04T04:13:15.169Z,22.49
2016-06-04T04:14:15.140Z,22.44
2016-06-04T04:15:15.143Z,22.51
2016-06-04T04:16:15.130Z,22.48
2016-06-04T04:17:15.226Z,22.52
2016-06-04T04:18:15.104Z,22.52
2016-06-04T04:19:15.106Z,22.49
2016-06-04T04:20:15.109Z,22.52
2016-06-04T04:21:15.066Z,22.51
2016-06-04T04:22:15.053Z,22.49
2016-06-04T04:23:15.024Z,22.49
2016-06-04T04:24:15.027Z,22.52
2016-06-04T04:25:15.202Z,22.54
2016-06-04T04:26:16.689Z,22.46
2016-06-04T04:27:14.988Z,22.54
2016-06-04T04:28:14.975Z,22.56
2016-06-04T04:29:14.963Z,22.52
2016-06-04T04:30:14.933Z,22.52
2016-06-04T04:31:14.779Z,22.51
2016-06-04T04:32:14.907Z,22.46
2016-06-04T04:33:15.207Z,22.45
2016-06-04T04:34:14.897Z,22.45
2016-06-04T04:35:14.884Z,22.54
2016-06-04T04:36:14.887Z,22.46
2016-06-04T04:37:14.874Z,22.44
2016-06-04T04:38:14.829Z,22.46
2016-06-04T04:39:14.818Z,22.42
2016-06-04T04:40:14.820Z,22.48
2016-06-04T04:41:15.479Z,22.52
2016-06-04T04:42:14.809Z,22.45
2016-06-04T04:43:14.781Z,22.56
2016-06-04T04:44:14.753Z,22.42
2016-06-04T04:45:14.740Z,22.49
2016-06-04T04:46:14.726Z,22.49
2016-06-04T04:47:14.714Z,22.46
2016-06-04T04:48:14.700Z,22.56
2016-06-04T04:49:15.250Z,22.45
2016-06-04T04:50:14.690Z,22.45
2016-06-04T04:51:14.662Z,22.54
2016-06-04T04:52:14.664Z,22.46
2016-06-04T04:53:14.636Z,22.46
2016-06-04T04:54:14.655Z,22.45
2016-06-04T04:55:14.611Z,22.54
2016-06-04T04:56:15.191Z,22.57
2016-06-04T04:57:15.302Z,22.57
2016-06-04T04:58:14.572Z,22.48
2016-06-04T04:59:14.652Z,22.48
2016-06-04T05:00:14.529Z,22.44
2016-06-04T05:01:14.516Z,22.56
2016-06-04T05:02:14.519Z,22.56
2016-06-04T05:03:14.507Z,22.54
2016-06-04T05:04:14.510Z,22.59
2016-06-04T05:05:14.543Z,22.54
2016-06-04T05:06:14.483Z,22.59
2016-06-04T05:07:14.455Z,22.57
2016-06-04T05:08:14.442Z,22.52
2016-06-04T05:09:14.413Z,22.49
2016-06-04T05:10:14.401Z,22.56
2016-06-04T05:11:14.418Z,22.48
2016-06-04T05:12:14.374Z,22.57
2016-06-04T05:13:14.565Z,22.56
2016-06-04T05:14:14.365Z,22.51
2016-06-04T05:15:14.351Z,22.56
2016-06-04T05:16:14.338Z,22.63
2016-06-04T05:17:14.310Z,22.63
2016-06-04T05:18:14.297Z,22.6
2016-06-04T05:19:14.284Z,22.64
2016-06-04T05:20:14.271Z,22.6
2016-06-04T05:21:14.524Z,22.63
2016-06-04T05:22:14.261Z,22.63
2016-06-04T05:23:14.232Z,22.66
2016-06-04T05:24:14.220Z,22.59
2016-06-04T05:25:14.206Z,22.56
2016-06-04T05:26:14.397Z,22.61
2016-06-04T05:27:14.180Z,22.6
2016-06-04T05:28:14.167Z,22.63
2016-06-04T05:29:14.561Z,22.57
2016-06-04T05:30:14.141Z,22.57
2016-06-04T05:31:14.144Z,22.56
2016-06-04T05:32:14.116Z,22.56
2016-06-04T05:33:14.103Z,22.61
2016-06-04T05:34:14.090Z,22.63
2016-06-04T05:35:13.921Z,22.61
2016-06-04T05:36:14.173Z,22.66
2016-06-04T05:37:14.583Z,22.69
2016-06-04T05:38:14.038Z,22.66
2016-06-04T05:39:14.041Z,22.69
2016-06-04T05:40:14.013Z,22.69
2016-06-04T05:41:14.921Z,22.67
2016-06-04T05:42:13.987Z,22.69
2016-06-04T05:43:13.957Z,22.66
2016-06-04T05:44:14.164Z,22.67
2016-06-04T05:45:13.932Z,22.59
2016-06-04T05:46:13.934Z,22.59
2016-06-04T05:47:13.765Z,22.56
2016-06-04T05:48:13.909Z,22.67
2016-06-04T05:49:13.724Z,22.69
2016-06-04T05:50:13.883Z,22.69
2016-06-04T05:51:13.870Z,22.72
2016-06-04T05:52:14.201Z,22.69
2016-06-04T05:53:13.844Z,22.64
2016-06-04T05:54:13.816Z,22.67
2016-06-04T05:55:13.834Z,22.67
2016-06-04T05:56:14.008Z,22.59
2016-06-04T05:57:13.792Z,22.66
2016-06-04T05:58:13.780Z,22.63
2016-06-04T05:59:13.751Z,22.61
2016-06-04T06:00:14.191Z,22.63
2016-06-04T06:01:13.741Z,22.61
2016-06-04T06:02:13.727Z,22.61
2016-06-04T06:03:13.700Z,22.63
2016-06-04T06:04:13.686Z,22.6
2016-06-04T06:05:13.689Z,22.61
2016-06-04T06:06:13.660Z,22.59
2016-06-04T06:07:13.663Z,22.64
2016-06-04T06:08:14.228Z,22.64
2016-06-04T06:09:13.637Z,22.69
2016-06-04T06:10:13.609Z,22.69
2016-06-04T06:11:13.627Z,22.67
2016-06-04T06:12:13.582Z,22.74
2016-06-04T06:13:13.585Z,22.76
2016-06-04T06:14:13.557Z,22.69
2016-06-04T06:15:13.560Z,22.66
2016-06-04T06:16:14.234Z,22.67
2016-06-04T06:17:13.534Z,22.74
2016-06-04T06:18:13.506Z,22.76
2016-06-04T06:19:13.508Z,22.76
2016-06-04T06:20:13.479Z,22.78
2016-06-04T06:21:13.467Z,22.75
2016-06-04T06:22:13.453Z,22.81
2016-06-04T06:23:13.456Z,22.81
2016-06-04T06:24:14.224Z,22.79
2016-06-04T06:25:13.430Z,22.74
2016-06-04T06:26:13.965Z,22.79
2016-06-04T06:27:13.389Z,22.81
2016-06-04T06:28:13.391Z,22.81
2016-06-04T06:29:13.363Z,22.82
2016-06-04T06:30:13.350Z,22.81
2016-06-04T06:31:13.180Z,22.79
2016-06-04T06:32:13.527Z,22.81
2016-06-04T06:33:13.421Z,22.85
2016-06-04T06:34:13.299Z,22.81
2016-06-04T06:35:13.285Z,22.82
2016-06-04T06:36:13.272Z,22.88
2016-06-04T06:37:13.275Z,22.88
2016-06-04T06:38:13.246Z,22.85
2016-06-04T06:39:13.233Z,22.88
2016-06-04T06:40:13.533Z,22.84
2016-06-04T06:41:13.567Z,22.84
2016-06-04T06:42:13.195Z,22.84
2016-06-04T06:43:13.198Z,22.82
2016-06-04T06:44:13.168Z,22.89
2016-06-04T06:45:13.140Z,22.85
2016-06-04T06:46:13.143Z,22.84
2016-06-04T06:47:13.130Z,22.86
2016-06-04T06:48:13.523Z,22.84
2016-06-04T06:49:13.104Z,22.88
2016-06-04T06:50:13.091Z,22.89
2016-06-04T06:51:13.095Z,22.88
2016-06-04T06:52:13.050Z,22.89
2016-06-04T06:53:13.068Z,22.89
2016-06-04T06:54:13.055Z,23
2016-06-04T06:55:13.120Z,22.96
2016-06-04T06:56:13.264Z,22.94
2016-06-04T06:57:13.016Z,23
2016-06-04T06:58:12.988Z,22.94
2016-06-04T06:59:12.991Z,23.03
2016-06-04T07:00:12.962Z,23
2016-06-04T07:01:12.965Z,23.01
2016-06-04T07:02:12.952Z,23
2016-06-04T07:03:13.173Z,23.01
2016-06-04T07:04:12.910Z,23.01
2016-06-04T07:05:12.897Z,23.01
2016-06-04T07:06:12.963Z,23.06
2016-06-04T07:07:12.888Z,23.03
2016-06-04T07:08:12.874Z,22.97
2016-06-04T07:09:12.845Z,23.09
2016-06-04T07:10:12.832Z,22.99
2016-06-04T07:11:13.226Z,23.06
2016-06-04T07:12:12.806Z,23.01
2016-06-04T07:13:12.793Z,23.06
2016-06-04T07:14:12.797Z,22.99
2016-06-04T07:15:12.752Z,23.03
2016-06-04T07:16:12.754Z,23.03
2016-06-04T07:17:12.742Z,23.03
2016-06-04T07:18:12.729Z,22.96
2016-06-04T07:19:13.216Z,23.09
2016-06-04T07:20:12.687Z,23.15
2016-06-04T07:21:12.706Z,23.09
2016-06-04T07:22:12.678Z,23.01
2016-06-04T07:23:12.665Z,23.11
2016-06-04T07:24:12.651Z,23.18
2016-06-04T07:25:12.622Z,23.11
2016-06-04T07:26:13.142Z,23.11
2016-06-04T07:27:13.144Z,23.07
2016-06-04T07:28:12.584Z,23.14
2016-06-04T07:29:12.587Z,23.11
2016-06-04T07:30:12.589Z,23.07
2016-06-04T07:31:12.545Z,23.03
2016-06-04T07:32:12.563Z,23.09
2016-06-04T07:33:12.535Z,23.04
2016-06-04T07:34:12.522Z,23.15
2016-06-04T07:35:13.244Z,23.19
2016-06-04T07:36:12.496Z,23.16
2016-06-04T07:37:12.577Z,23.14
2016-06-04T07:38:12.486Z,23.15
2016-06-04T07:39:12.474Z,23.15
2016-06-04T07:40:12.444Z,23.18
2016-06-04T07:41:12.510Z,23.15
2016-06-04T07:42:12.419Z,23.21
2016-06-04T07:43:12.453Z,23.15
2016-06-04T07:44:12.377Z,23.22
2016-06-04T07:45:12.395Z,23.22
2016-06-04T07:46:12.210Z,23.23
2016-06-04T07:47:12.385Z,23.31
2016-06-04T07:48:12.341Z,23.22
2016-06-04T07:49:12.343Z,23.31
2016-06-04T07:50:12.315Z,23.23
2016-06-04T07:51:13.193Z,23.31
2016-06-04T07:52:12.414Z,23.25
2016-06-04T07:53:12.276Z,23.23
2016-06-04T07:54:12.294Z,23.26
2016-06-04T07:55:12.251Z,23.32
2016-06-04T07:56:12.394Z,23.31
2016-06-04T07:57:12.490Z,23.29
2016-06-04T07:58:12.337Z,23.25
2016-06-04T07:59:12.495Z,23.25
2016-06-04T08:00:12.186Z,23.22
2016-06-04T08:01:12.158Z,23.23
2016-06-04T08:02:12.285Z,23.31
2016-06-04T08:03:12.131Z,23.23
2016-06-04T08:04:12.134Z,23.31
2016-06-04T08:05:12.121Z,23.32
2016-06-04T08:06:12.108Z,23.37
2016-06-04T08:07:13.908Z,23.31
2016-06-04T08:08:12.067Z,23.41
2016-06-04T08:09:12.054Z,23.42
2016-06-04T08:10:12.041Z,23.35
2016-06-04T08:11:12.043Z,23.38
2016-06-04T08:12:12.030Z,23.38
2016-06-04T08:13:12.018Z,23.34
2016-06-04T08:14:11.988Z,23.39
2016-06-04T08:15:11.977Z,23.38
2016-06-04T08:16:11.979Z,23.37
2016-06-04T08:17:11.951Z,23.39
2016-06-04T08:18:11.953Z,23.41
2016-06-04T08:19:11.768Z,23.37
2016-06-04T08:20:11.943Z,23.41
2016-06-04T08:21:11.898Z,23.39
2016-06-04T08:22:11.901Z,23.45
2016-06-04T08:23:11.887Z,23.42
2016-06-04T08:24:11.876Z,23.45
2016-06-04T08:25:11.847Z,23.39
2016-06-04T08:26:11.693Z,23.41
2016-06-04T08:27:11.837Z,23.38
2016-06-04T08:28:11.823Z,23.49
2016-06-04T08:29:11.811Z,23.47
2016-06-04T08:30:11.781Z,23.44
2016-06-04T08:31:11.784Z,23.45
2016-06-04T08:32:11.616Z,23.47
2016-06-04T08:33:11.743Z,23.5
2016-06-04T08:34:11.747Z,23.47
2016-06-04T08:35:11.733Z,23.41
2016-06-04T08:36:11.751Z,23.45
2016-06-04T08:37:11.754Z,23.44
2016-06-04T08:38:12.163Z,23.47
2016-06-04T08:39:14.821Z,23.49
2016-06-04T08:40:11.652Z,23.42
2016-06-04T08:41:11.655Z,23.52
2016-06-04T08:42:12.376Z,23.54
2016-06-04T08:43:12.223Z,23.41
2016-06-04T08:44:11.602Z,23.54
2016-06-04T08:45:11.604Z,23.6
2016-06-04T08:46:11.591Z,23.67
2016-06-04T08:47:11.577Z,23.67
2016-06-04T08:48:11.565Z,23.69
2016-06-04T08:49:11.552Z,23.69
2016-06-04T08:50:11.539Z,23.67
2016-06-04T08:51:11.526Z,23.68
2016-06-04T08:52:11.498Z,23.62
2016-06-04T08:53:11.515Z,23.68
2016-06-04T08:54:11.471Z,23.6
2016-06-04T08:55:11.474Z,23.63
2016-06-04T08:56:11.508Z,23.68
2016-06-04T08:57:11.308Z,23.69
2016-06-04T08:58:12.154Z,23.68
2016-06-04T08:59:11.797Z,23.71
2016-06-04T09:00:11.409Z,23.67
2016-06-04T09:01:11.397Z,23.78
2016-06-04T09:02:11.384Z,23.81
2016-06-04T09:03:11.370Z,23.72
2016-06-04T09:04:11.514Z,23.79
2016-06-04T09:05:11.345Z,23.78
2016-06-04T09:06:11.348Z,23.87
2016-06-04T09:07:11.319Z,23.9
2016-06-04T09:08:11.306Z,23.87
2016-06-04T09:09:11.294Z,23.81
2016-06-04T09:10:11.155Z,23.79
2016-06-04T09:11:11.267Z,23.78
2016-06-04T09:12:11.567Z,23.75
2016-06-04T09:13:11.444Z,23.69
2016-06-04T09:14:11.229Z,23.72
2016-06-04T09:15:11.215Z,23.71
2016-06-04T09:16:11.203Z,23.77
2016-06-04T09:17:11.268Z,23.81
2016-06-04T09:18:11.348Z,23.93
2016-06-04T09:19:11.180Z,23.99
2016-06-04T09:20:11.510Z,23.96
2016-06-04T09:21:11.138Z,24.05
2016-06-04T09:22:10.969Z,23.96
2016-06-04T09:23:11.112Z,24.14
2016-06-04T09:24:11.099Z,24.09
2016-06-04T09:25:11.087Z,24.05
2016-06-04T09:26:11.089Z,24.15
2016-06-04T09:27:11.092Z,24.05
2016-06-04T09:28:11.656Z,24.06
2016-06-04T09:29:11.051Z,23.99
2016-06-04T09:30:11.037Z,23.93
2016-06-04T09:31:11.008Z,23.87
2016-06-04T09:32:11.011Z,23.9
2016-06-04T09:33:10.984Z,23.82
2016-06-04T09:34:10.986Z,23.96
2016-06-04T09:35:10.957Z,23.94
2016-06-04T09:36:11.553Z,23.93
2016-06-04T09:37:10.931Z,23.89
2016-06-04T09:38:10.919Z,23.84
2016-06-04T09:39:10.921Z,23.87
2016-06-04T09:40:10.908Z,23.84
2016-06-04T09:41:10.895Z,23.89
2016-06-04T09:42:10.883Z,23.86
2016-06-04T09:43:10.728Z,23.81
2016-06-04T09:44:11.653Z,23.89
2016-06-04T09:45:10.843Z,23.93
2016-06-04T09:46:10.830Z,23.97
2016-06-04T09:47:10.818Z,23.92
2016-06-04T09:48:10.804Z,23.89
2016-06-04T09:49:10.807Z,23.82
2016-06-04T09:50:10.779Z,23.93
2016-06-04T09:51:10.766Z,23.89
2016-06-04T09:52:10.862Z,23.82
2016-06-04T09:53:10.770Z,23.89
2016-06-04T09:54:10.727Z,23.86
2016-06-04T09:55:10.714Z,23.93
2016-06-04T09:56:10.701Z,23.89
2016-06-04T09:57:10.531Z,23.81
2016-06-04T09:58:11.144Z,23.84
2016-06-04T09:59:11.365Z,23.81
2016-06-04T10:00:10.868Z,23.82
2016-06-04T10:01:11.651Z,23.78
2016-06-04T10:02:10.623Z,23.84
2016-06-04T10:03:10.611Z,23.9
2016-06-04T10:04:10.614Z,23.92
2016-06-04T10:05:10.601Z,23.89
2016-06-04T10:06:11.929Z,23.87
2016-06-04T10:07:10.631Z,23.86
2016-06-04T10:08:10.943Z,23.86
2016-06-04T10:09:10.676Z,23.86
2016-06-04T10:10:10.508Z,23.92
2016-06-04T10:11:10.677Z,23.87
2016-06-04T10:12:10.659Z,23.86
2016-06-04T10:13:11.125Z,23.89
2016-06-04T10:14:10.996Z,23.86
2016-06-04T10:15:10.709Z,23.92
2016-06-04T10:16:11.090Z,23.84
2016-06-04T10:17:10.626Z,23.9
2016-06-04T10:18:10.632Z,23.96
2016-06-04T10:19:10.467Z,23.9
2016-06-04T10:20:10.472Z,23.89
2016-06-04T10:21:10.617Z,23.9
2016-06-04T10:22:10.589Z,23.87
2016-06-04T10:23:10.703Z,23.9
2016-06-04T10:24:10.567Z,23.96
2016-06-04T10:25:10.570Z,23.92
2016-06-04T10:26:10.542Z,23.92
2016-06-04T10:27:10.530Z,23.9
2016-06-04T10:28:11.282Z,23.93
2016-06-04T10:29:10.989Z,23.9
2016-06-04T10:30:10.491Z,23.92
2016-06-04T10:31:10.729Z,23.92
2016-06-04T10:32:10.466Z,23.92
2016-06-04T10:33:10.484Z,23.97
2016-06-04T10:34:10.440Z,23.94
2016-06-04T10:35:10.271Z,23.9
2016-06-04T10:36:10.414Z,23.94
2016-06-04T10:37:10.401Z,23.93
2016-06-04T10:38:10.388Z,23.92
2016-06-04T10:39:10.673Z,23.99
2016-06-04T10:40:10.362Z,23.94
2016-06-04T10:41:10.381Z,23.94
2016-06-04T10:42:10.337Z,24
2016-06-04T10:43:10.543Z,23.97
2016-06-04T10:44:10.170Z,23.99
2016-06-04T10:45:10.298Z,23.97
2016-06-04T10:46:10.284Z,24
2016-06-04T10:47:10.757Z,24.05
2016-06-04T10:48:10.275Z,23.99
2016-06-04T10:49:10.261Z,24
2016-06-04T10:50:10.092Z,23.96
2016-06-04T10:51:10.220Z,23.97
2016-06-04T10:52:10.239Z,23.97
2016-06-04T10:53:10.210Z,23.96
2016-06-04T10:54:10.213Z,23.99
2016-06-04T10:55:10.746Z,24
2016-06-04T10:56:10.171Z,23.97
2016-06-04T10:57:10.174Z,24
2016-06-04T10:58:10.769Z,23.96
2016-06-04T10:59:10.133Z,23.93
2016-06-04T11:00:10.135Z,24.11
2016-06-04T11:01:10.107Z,23.99
2016-06-04T11:02:10.094Z,24.02
2016-06-04T11:03:10.738Z,24.05
2016-06-04T11:04:10.068Z,24.04
2016-06-04T11:05:10.055Z,24.09
2016-06-04T11:06:10.057Z,24.06
2016-06-04T11:07:09.873Z,24.02
2016-06-04T11:08:10.032Z,24.08
2016-06-04T11:09:10.003Z,23.97
2016-06-04T11:10:09.990Z,24
2016-06-04T11:11:10.039Z,24.06
2016-06-04T11:12:09.965Z,24.04
2016-06-04T11:13:10.076Z,24.09
2016-06-04T11:14:10.423Z,24.06
2016-06-04T11:15:09.941Z,24.08
2016-06-04T11:16:09.944Z,23.97
2016-06-04T11:17:09.900Z,24.05
2016-06-04T11:18:09.903Z,24.05
2016-06-04T11:19:10.031Z,24.08
2016-06-04T11:20:09.892Z,24.09
2016-06-04T11:21:09.864Z,24.11
2016-06-04T11:22:09.850Z,24.05
2016-06-04T11:23:09.837Z,24.06
2016-06-04T11:24:09.809Z,24.09
2016-06-04T11:25:09.812Z,24.02
2016-06-04T11:26:09.799Z,24.12
2016-06-04T11:27:10.036Z,24
2016-06-04T11:28:09.677Z,24.15
2016-06-04T11:29:09.758Z,24.12
2016-06-04T11:30:09.745Z,24.12
2016-06-04T11:31:09.747Z,24.06
2016-06-04T11:32:09.719Z,24.04
2016-06-04T11:33:09.705Z,24.08
2016-06-04T11:34:09.693Z,24.11
2016-06-04T11:35:10.039Z,24.06
2016-06-04T11:36:09.667Z,24.06
2016-06-04T11:37:09.654Z,24.11
2016-06-04T11:38:09.640Z,24.14
2016-06-04T11:39:09.628Z,24.11
2016-06-04T11:40:09.646Z,24.06
2016-06-04T11:41:10.667Z,24.12
2016-06-04T11:42:09.495Z,24.09
2016-06-04T11:43:10.092Z,24.16
2016-06-04T11:44:09.578Z,24.19
2016-06-04T11:45:09.566Z,24.19
2016-06-04T11:46:09.553Z,24.14
2016-06-04T11:47:09.539Z,24.15
2016-06-04T11:48:09.527Z,24.18
2016-06-04T11:49:09.499Z,24.16
2016-06-04T11:50:09.642Z,24.12
2016-06-04T11:51:09.489Z,24.12
2016-06-04T11:52:09.320Z,24.12
2016-06-04T11:53:09.462Z,24.16
2016-06-04T11:54:09.450Z,24.21
2016-06-04T11:55:09.437Z,24.11
2016-06-04T11:56:09.502Z,24.23
2016-06-04T11:57:09.769Z,24.21
2016-06-04T11:58:09.695Z,24.14
2016-06-04T11:59:09.400Z,24.19
2016-06-04T12:00:09.372Z,24.18
2016-06-04T12:01:09.375Z,24.24
2016-06-04T12:02:09.346Z,24.29
2016-06-04T12:03:09.333Z,24.21
2016-06-04T12:04:09.335Z,24.26
2016-06-04T12:05:09.308Z,24.24
2016-06-04T12:06:09.700Z,24.23
2016-06-04T12:07:09.141Z,24.24
2016-06-04T12:08:09.112Z,24.27
2016-06-04T12:09:09.272Z,24.31
2016-06-04T12:10:09.243Z,24.26
2016-06-04T12:11:09.246Z,24.31
2016-06-04T12:12:09.076Z,24.27
2016-06-04T12:13:09.219Z,24.24
2016-06-04T12:14:09.707Z,24.26
2016-06-04T12:15:09.209Z,24.27
2016-06-04T12:16:09.181Z,24.26
2016-06-04T12:17:09.168Z,24.26
2016-06-04T12:18:09.154Z,24.3
2016-06-04T12:19:09.142Z,24.41
2016-06-04T12:20:09.129Z,24.29
2016-06-04T12:21:09.116Z,24.29
2016-06-04T12:22:09.712Z,24.31
2016-06-04T12:23:09.106Z,24.44
2016-06-04T12:24:09.077Z,24.42
2016-06-04T12:25:09.064Z,24.41
2016-06-04T12:26:09.051Z,24.39
2016-06-04T12:27:09.038Z,24.44
2016-06-04T12:28:09.042Z,24.42
2016-06-04T12:29:08.887Z,24.44
2016-06-04T12:30:09.031Z,24.48
2016-06-04T12:31:08.986Z,24.48
2016-06-04T12:32:08.989Z,24.46
2016-06-04T12:33:08.977Z,24.51
2016-06-04T12:34:08.947Z,24.48
2016-06-04T12:35:08.966Z,24.45
2016-06-04T12:36:08.938Z,24.41
2016-06-04T12:37:08.925Z,24.52
2016-06-04T12:38:09.005Z,24.48
2016-06-04T12:39:08.899Z,24.52
2016-06-04T12:40:08.886Z,24.6
2016-06-04T12:41:08.873Z,24.59
2016-06-04T12:42:08.907Z,24.61
2016-06-04T12:43:08.863Z,24.63
2016-06-04T12:44:08.849Z,24.59
2016-06-04T12:45:08.837Z,24.67
2016-06-04T12:46:09.011Z,24.64
2016-06-04T12:47:08.796Z,24.64
2016-06-04T12:48:08.798Z,24.63
2016-06-04T12:49:08.785Z,24.52
2016-06-04T12:50:08.772Z,24.42
2016-06-04T12:51:08.743Z,24.45
2016-06-04T12:52:08.731Z,24.6
2016-06-04T12:53:08.717Z,24.63
2016-06-04T12:54:09.001Z,24.7
2016-06-04T12:55:08.707Z,24.7